Elmwood, TN (38560)

10:52 PM CDT on September 16, 2014 (GMT -0500)
New Mid-Brush Creek | Change Station
CLOSE
Current Station
Personal Weather Station
Location: Brush Creek, TN
Elevation: 801 ft
Nearby Weather Stations
Active Advisory: Special Statement

Elev 801 ft 36.15 °N, 86.05 °W | Updated 21 minutes ago

Clear
Clear
59.6 °F
Feels Like 59.6 °F
N
0.0
Wind Variable Wind from WSW
Gusts 0.0 mph

Today
High -- | Low -- °F
--% Chance of Precip.
Yesterday
High -- | Low -- °F
Precip. -- in
6:26 AM 6:49 PM
Last Quarter, 40% visible
Pressure 30.09 in
Visibility 10.0 miles
Clouds Clear
Dew Point 59 °F
Humidity 98%
Rainfall 0.01 in
Snow Depth Not available.
UV 0 out of 12
Pollen 8.00 out of 12
Ozone Good
PM2.5 Moderate
Flu Activity Not available.
METAR KMQY 170256Z 00000KT 10SM CLR 17/15 A3007 RMK AO2 50005 T01660150 SLP190

More Conditions Fewer Conditions

Pressure 30.09 in
Visibility 10.0 miles
Clouds Clear
Dew Point 59 °F
Humidity 98%
Rainfall 0.01 in
Snow Depth Not available.
UV 0 out of 12
Pollen 8.00 out of 12
Ozone Good
PM2.5 Moderate
Flu Activity Not available.
METAR KMQY 170256Z 00000KT 10SM CLR 17/15 A3007 RMK AO2 50005 T01660150 SLP190

More Conditions Fewer Conditions

10-Day Weather Forecast

Almanac

Astronomy

Sep. 16, 2014 Rise Set
Actual Time 6:26 AM CDT 6:49 PM CDT
Civil Twilight 6:00 AM CDT 7:15 PM CDT
Nautical Twilight 5:30 AM CDT 7:45 PM CDT
Astronomical Twilight 4:59 AM CDT 8:15 PM CDT
Moon No Moon Rise 2:05 PM CDT (9/16)
Length of Visible Light 13h 14m
Length of Day
12h 22m
Tomorrow will be 2m 17s shorter.
Last Quarter, 40% of the Moon is Illuminated
Today
Last Quarter
Sep 24
New
Oct 1
First Quarter
Oct 8
Full
Oct 15
Last Quarter

Today's Extremes

State Highs State Lows

Community

WunderPhotos

Upload Photos

1,753,956 photos uploaded!

Nearby

Air Quality

  Air Quality AQ Index Pollutant
Yesterday Good
PM2.5
Yesterday Good
OZONE
Current Moderate
PM2.5
Current Good
OZONE
Tuesday Moderate
PM2.5
Tuesday Good
OZONE
Wednesday Good
OZONE
Wednesday Good
PM2.5
Thursday Good
OZONE
Thursday Good
PM2.5

Snow Depth

Station Depth Elevation
No new snow has been reported.

Earthquake Activity

City Distance Mag. Time & Date
No recent earthquake activity has been reported nearby.
Minimum magnitude displayed is 2.5.

Coastal Water Temperatures

Place Temperature
No Stations Reporting

Nearby Weather Stations